createdAt,value
2023-08-21T00:02:37.597Z,0.80
2023-08-21T00:07:42.234Z,1.02
2023-08-21T00:12:45.274Z,1.02
2023-08-21T00:17:48.443Z,1.00
2023-08-21T00:22:52.950Z,1.05
2023-08-21T00:27:56.108Z,1.17
2023-08-21T00:32:59.246Z,1.00
2023-08-21T00:38:03.810Z,1.30
2023-08-21T00:43:07.065Z,1.10
2023-08-21T00:48:10.986Z,1.35
2023-08-21T00:53:15.838Z,0.93
2023-08-21T00:58:20.858Z,1.38
2023-08-21T01:03:24.042Z,1.15
2023-08-21T01:08:37.822Z,1.13
2023-08-21T01:13:50.357Z,1.20
2023-08-21T01:18:55.658Z,1.23
2023-08-21T01:24:01.244Z,1.08
2023-08-21T01:29:04.594Z,1.40
2023-08-21T01:34:13.476Z,1.48
2023-08-21T01:39:18.307Z,1.25
2023-08-21T01:44:21.349Z,1.10
2023-08-21T01:49:24.486Z,0.80
2023-08-21T01:54:29.030Z,1.35
2023-08-21T01:59:35.038Z,1.25
2023-08-21T02:04:38.112Z,1.17
2023-08-21T02:09:42.763Z,1.10
2023-08-21T02:14:47.196Z,1.00
2023-08-21T02:19:51.070Z,1.40
2023-08-21T02:24:55.635Z,1.40
2023-08-21T02:29:58.706Z,1.02
2023-08-21T02:35:01.810Z,1.00
2023-08-21T02:40:09.252Z,1.02
2023-08-21T02:45:12.869Z,1.13
2023-08-21T02:50:16.157Z,1.27
2023-08-21T02:55:22.021Z,1.20
2023-08-21T03:00:25.147Z,1.02
2023-08-21T03:05:28.282Z,1.05
2023-08-21T03:10:34.932Z,1.10
2023-08-21T03:15:38.469Z,1.40
2023-08-21T03:20:46.885Z,1.48
2023-08-21T03:25:54.600Z,1.25
2023-08-21T03:30:57.859Z,1.25
2023-08-21T03:36:01.128Z,1.42
2023-08-21T03:41:06.295Z,1.40
2023-08-21T03:46:10.289Z,1.10
2023-08-21T03:51:13.617Z,1.35
2023-08-21T03:56:19.648Z,1.15
2023-08-21T04:01:22.744Z,1.13
2023-08-21T04:06:25.773Z,1.40
2023-08-21T04:11:30.216Z,0.98
2023-08-21T04:16:33.259Z,1.15
2023-08-21T04:21:36.388Z,0.95
2023-08-21T04:26:40.933Z,1.33
2023-08-21T04:31:44.105Z,1.13
2023-08-21T04:36:47.620Z,1.17
2023-08-21T04:41:52.333Z,1.30
2023-08-21T04:46:55.933Z,1.45
2023-08-21T04:51:59.266Z,1.15
2023-08-21T04:57:05.344Z,1.30
2023-08-21T05:02:09.955Z,1.20
2023-08-21T05:07:15.596Z,1.30
2023-08-21T05:12:20.234Z,1.13
2023-08-21T05:17:23.404Z,1.02
2023-08-21T05:22:26.783Z,1.30
2023-08-21T05:27:31.844Z,1.33
2023-08-21T05:32:34.945Z,1.73
2023-08-21T05:37:38.194Z,1.33
2023-08-21T05:42:43.689Z,1.42
2023-08-21T05:47:47.217Z,1.48
2023-08-21T05:52:50.700Z,0.95
2023-08-21T05:57:55.717Z,1.60
2023-08-21T06:02:59.023Z,1.58
2023-08-21T06:08:23.109Z,1.77
2023-08-21T06:13:28.010Z,1.48
2023-08-21T06:18:32.237Z,1.20
2023-08-21T06:23:35.326Z,2.03
2023-08-21T06:28:39.798Z,2.08
2023-08-21T06:33:42.953Z,1.45
2023-08-21T06:38:46.595Z,1.65
2023-08-21T06:43:51.229Z,1.50
2023-08-21T06:48:56.254Z,2.17
2023-08-21T06:53:59.350Z,1.35
2023-08-21T06:59:03.842Z,1.50
2023-08-21T07:04:07.017Z,1.40
2023-08-21T07:09:10.228Z,1.88
2023-08-21T07:14:15.034Z,1.20
2023-08-21T07:19:19.425Z,1.35
2023-08-21T07:24:28.319Z,1.35
2023-08-21T07:29:33.730Z,1.60
2023-08-21T07:34:40.161Z,1.30
2023-08-21T07:39:43.333Z,1.42
2023-08-21T07:44:48.337Z,1.27
2023-08-21T07:49:51.657Z,1.48
2023-08-21T07:54:54.900Z,1.50
2023-08-21T07:59:59.531Z,0.95
2023-08-21T08:05:03.005Z,1.67
2023-08-21T08:10:06.988Z,1.30
2023-08-21T08:15:15.336Z,1.30
2023-08-21T08:20:18.743Z,2.00
2023-08-21T08:25:24.445Z,1.30
2023-08-21T08:30:29.238Z,1.40
2023-08-21T08:35:32.471Z,1.50
2023-08-21T08:40:36.766Z,1.00
2023-08-21T08:45:43.510Z,1.30
2023-08-21T08:50:47.818Z,1.15
2023-08-21T08:55:51.135Z,1.17
2023-08-21T09:00:55.738Z,1.10
2023-08-21T09:06:01.455Z,0.93
2023-08-21T09:11:05.448Z,1.08
2023-08-21T09:16:10.835Z,1.13
2023-08-21T09:21:14.322Z,1.40
2023-08-21T09:26:21.825Z,1.00
2023-08-21T09:31:32.011Z,1.10
2023-08-21T09:36:36.862Z,1.20
2023-08-21T09:41:43.336Z,1.05
2023-08-21T09:46:53.522Z,1.00
2023-08-21T09:51:57.925Z,1.00
2023-08-21T09:57:04.460Z,1.35
2023-08-21T10:02:11.452Z,1.17
2023-08-21T10:07:15.765Z,0.70
2023-08-21T10:12:34.481Z,0.73
2023-08-21T10:17:39.419Z,0.60
2023-08-21T10:22:46.404Z,0.70
2023-08-21T10:27:52.232Z,0.95
2023-08-21T10:32:58.865Z,0.68
2023-08-21T10:38:13.161Z,0.80
2023-08-21T10:43:41.423Z,0.70
2023-08-21T10:48:45.749Z,0.40
2023-08-21T10:53:48.893Z,0.80
2023-08-21T10:58:55.532Z,0.30
2023-08-21T11:04:02.651Z,0.52
2023-08-21T11:09:07.059Z,0.40
2023-08-21T11:14:10.366Z,0.75
2023-08-21T11:19:14.908Z,0.57
2023-08-21T11:24:18.116Z,0.68
2023-08-21T11:29:21.313Z,0.40
2023-08-21T11:34:25.781Z,1.00
2023-08-21T11:39:31.250Z,0.45
2023-08-21T11:44:34.726Z,0.52
2023-08-21T11:49:42.656Z,0.50
2023-08-21T11:54:50.096Z,0.50
2023-08-21T11:59:54.097Z,0.90
2023-08-21T12:05:04.481Z,0.52
2023-08-21T12:10:09.106Z,0.60
2023-08-21T12:15:12.668Z,0.40
2023-08-21T12:20:17.621Z,0.60
2023-08-21T12:25:21.052Z,0.88
2023-08-21T12:30:24.376Z,0.65
2023-08-21T12:35:28.972Z,0.50
2023-08-21T12:40:33.789Z,0.50
2023-08-21T12:45:38.791Z,1.08
2023-08-21T12:50:43.383Z,0.40
2023-08-21T12:55:46.508Z,0.50
2023-08-21T13:00:49.838Z,0.88
2023-08-21T13:05:54.369Z,0.50
2023-08-21T13:10:57.523Z,0.50
2023-08-21T13:16:01.441Z,0.55
2023-08-21T13:21:06.114Z,0.73
2023-08-21T13:26:09.419Z,0.50
2023-08-21T13:31:13.282Z,0.65
2023-08-21T13:36:18.891Z,0.60
2023-08-21T13:41:22.096Z,0.68
2023-08-21T13:46:25.191Z,0.60
2023-08-21T13:51:29.720Z,0.60
2023-08-21T13:56:33.035Z,0.68
2023-08-21T14:01:36.239Z,0.60
2023-08-21T14:06:40.745Z,0.55
2023-08-21T14:11:44.612Z,0.50
2023-08-21T14:16:47.755Z,0.60
2023-08-21T14:21:52.662Z,0.55
2023-08-21T14:26:57.107Z,1.25
2023-08-21T14:32:01.245Z,0.55
2023-08-21T14:37:06.440Z,0.50
2023-08-21T14:42:09.685Z,0.65
2023-08-21T14:47:12.980Z,0.70
2023-08-21T14:52:17.524Z,0.60
2023-08-21T14:57:20.778Z,0.63
2023-08-21T15:02:23.938Z,0.40
2023-08-21T15:07:29.291Z,0.47
2023-08-21T15:12:32.419Z,0.45
2023-08-21T15:17:35.544Z,0.60
2023-08-21T15:22:40.053Z,0.85
2023-08-21T15:27:43.157Z,0.50
2023-08-21T15:32:48.599Z,0.50
2023-08-21T15:37:53.765Z,0.50
2023-08-21T15:42:57.008Z,0.63
2023-08-21T15:48:02.696Z,0.40
2023-08-21T15:53:10.209Z,0.50
2023-08-21T15:58:15.979Z,0.55
2023-08-21T16:03:19.494Z,0.40
2023-08-21T16:08:24.141Z,0.75
2023-08-21T16:13:27.385Z,0.60
2023-08-21T16:18:30.519Z,0.55
2023-08-21T16:23:35.033Z,0.52
2023-08-21T16:28:38.119Z,0.55
2023-08-21T16:33:41.257Z,0.32
2023-08-21T16:38:45.744Z,0.40
2023-08-21T16:43:48.938Z,0.50
2023-08-21T16:48:51.951Z,0.60
2023-08-21T16:53:57.791Z,0.38
2023-08-21T16:59:01.447Z,0.40
2023-08-21T17:04:05.430Z,0.30
2023-08-21T17:09:13.037Z,0.50
2023-08-21T17:14:16.233Z,0.90
2023-08-21T17:19:22.189Z,0.40
2023-08-21T17:24:26.669Z,0.50
2023-08-21T17:29:29.923Z,0.40
2023-08-21T17:34:33.214Z,0.50
2023-08-21T17:39:38.084Z,0.70
2023-08-21T17:44:41.590Z,0.60
2023-08-21T17:49:44.724Z,0.60
2023-08-21T17:54:49.544Z,0.50
2023-08-21T17:59:52.822Z,0.68
2023-08-21T18:04:56.513Z,0.85
2023-08-21T18:10:01.091Z,0.88
2023-08-21T18:15:05.173Z,0.80
2023-08-21T18:20:10.049Z,1.00
2023-08-21T18:25:14.603Z,1.25
2023-08-21T18:30:21.025Z,1.20
2023-08-21T18:35:24.501Z,1.42
2023-08-21T18:40:28.964Z,1.15
2023-08-21T18:45:32.200Z,1.00
2023-08-21T18:50:37.807Z,1.10
2023-08-21T18:55:44.468Z,1.13
2023-08-21T19:00:47.573Z,1.30
2023-08-21T19:05:50.899Z,1.17
2023-08-21T19:10:55.496Z,1.88
2023-08-21T19:15:58.686Z,1.45
2023-08-21T19:21:02.003Z,1.52
2023-08-21T19:26:06.549Z,1.40
2023-08-21T19:31:10.461Z,1.45
2023-08-21T19:36:14.525Z,1.33
2023-08-21T19:41:18.993Z,1.67
2023-08-21T19:46:22.293Z,1.48
2023-08-21T19:51:25.534Z,1.38
2023-08-21T19:56:30.128Z,1.90
2023-08-21T20:01:33.357Z,1.58
2023-08-21T20:06:36.506Z,1.42
2023-08-21T20:11:41.288Z,1.45
2023-08-21T20:16:44.364Z,1.40
2023-08-21T20:21:47.704Z,1.20
2023-08-21T20:26:52.740Z,1.50
2023-08-21T20:31:55.837Z,1.30
2023-08-21T20:36:58.972Z,1.30
2023-08-21T20:42:05.316Z,1.20
2023-08-21T20:47:08.713Z,1.20
2023-08-21T20:52:13.361Z,1.30
2023-08-21T20:57:17.843Z,1.20
2023-08-21T21:02:21.452Z,1.50
2023-08-21T21:07:24.669Z,1.50
2023-08-21T21:12:29.202Z,1.42
2023-08-21T21:17:32.422Z,1.80
2023-08-21T21:22:35.570Z,1.50
2023-08-21T21:27:40.249Z,1.40
2023-08-21T21:32:43.839Z,1.60
2023-08-21T21:37:46.907Z,1.70
2023-08-21T21:42:51.602Z,1.60
2023-08-21T21:47:56.144Z,1.77
2023-08-21T21:52:59.325Z,1.60
2023-08-21T21:58:04.367Z,1.85
2023-08-21T22:03:07.648Z,1.98
2023-08-21T22:08:10.984Z,1.80
2023-08-21T22:13:16.252Z,2.00
2023-08-21T22:18:19.426Z,1.80
2023-08-21T22:23:22.642Z,2.00
2023-08-21T22:28:27.275Z,1.90
2023-08-21T22:33:30.341Z,2.13
2023-08-21T22:38:33.726Z,2.20
2023-08-21T22:43:38.261Z,1.98
2023-08-21T22:48:41.438Z,2.20
2023-08-21T22:53:47.807Z,3.38
2023-08-21T22:58:52.374Z,2.38
2023-08-21T23:03:56.508Z,2.42
2023-08-21T23:08:59.621Z,1.75
2023-08-21T23:14:04.174Z,2.20
2023-08-21T23:19:07.304Z,2.00
2023-08-21T23:24:10.526Z,2.05
2023-08-21T23:29:15.449Z,1.80
2023-08-21T23:34:18.526Z,2.10
2023-08-21T23:39:43.053Z,2.15
2023-08-21T23:44:47.475Z,2.50
2023-08-21T23:49:50.594Z,2.10
2023-08-21T23:54:53.965Z,2.05
2023-08-21T23:59:58.760Z,2.13
